createdAt,value
2023-03-03T00:00:36.764Z,5.03
2023-03-03T00:03:05.858Z,4.82
2023-03-03T00:05:33.848Z,5.25
2023-03-03T00:08:01.281Z,4.63
2023-03-03T00:10:28.355Z,4.40
2023-03-03T00:12:55.260Z,4.38
2023-03-03T00:15:23.094Z,5.35
2023-03-03T00:17:49.894Z,4.80
2023-03-03T00:20:40.210Z,4.55
2023-03-03T00:23:25.654Z,4.63
2023-03-03T00:25:53.610Z,4.68
2023-03-03T00:28:43.205Z,4.78
2023-03-03T00:31:16.862Z,4.82
2023-03-03T00:33:46.025Z,4.70
2023-03-03T00:36:15.742Z,4.80
2023-03-03T00:38:42.785Z,4.63
2023-03-03T00:41:26.287Z,4.32
2023-03-03T00:43:53.200Z,4.70
2023-03-03T00:46:20.857Z,4.82
2023-03-03T00:48:47.701Z,4.90
2023-03-03T00:51:23.683Z,4.60
2023-03-03T00:53:50.439Z,4.47
2023-03-03T00:56:17.113Z,4.97
2023-03-03T00:58:45.945Z,4.68
2023-03-03T01:01:12.480Z,3.38
2023-03-03T01:03:39.073Z,4.22
2023-03-03T01:06:05.739Z,5.20
2023-03-03T01:08:32.695Z,4.40
2023-03-03T01:11:03.757Z,4.95
2023-03-03T01:13:31.438Z,4.60
2023-03-03T01:15:58.509Z,4.30
2023-03-03T01:18:25.450Z,4.30
2023-03-03T01:20:51.935Z,4.60
2023-03-03T01:23:18.650Z,4.78
2023-03-03T01:25:45.234Z,5.18
2023-03-03T01:28:11.707Z,4.65
2023-03-03T01:30:38.296Z,4.80
2023-03-03T01:33:04.859Z,4.57
2023-03-03T01:35:31.544Z,4.60
2023-03-03T01:37:58.355Z,4.43
2023-03-03T01:40:27.144Z,4.72
2023-03-03T01:42:53.609Z,4.85
2023-03-03T01:45:30.376Z,4.65
2023-03-03T01:47:56.883Z,5.05
2023-03-03T01:50:35.099Z,4.40
2023-03-03T01:53:04.048Z,4.30
2023-03-03T01:55:33.968Z,4.65
2023-03-03T01:58:06.477Z,4.72
2023-03-03T02:00:34.527Z,4.30
2023-03-03T02:03:01.586Z,4.57
2023-03-03T02:05:28.606Z,4.72
2023-03-03T02:07:55.453Z,4.50
2023-03-03T02:10:22.595Z,5.25
2023-03-03T02:12:54.011Z,4.85
2023-03-03T02:15:28.466Z,4.40
2023-03-03T02:17:56.664Z,3.75
2023-03-03T02:20:29.207Z,4.88
2023-03-03T02:23:03.916Z,4.53
2023-03-03T02:25:33.645Z,4.40
2023-03-03T02:28:00.702Z,4.70
2023-03-03T02:30:27.209Z,4.60
2023-03-03T02:32:53.794Z,4.88
2023-03-03T02:35:31.477Z,4.72
2023-03-03T02:38:02.115Z,4.85
2023-03-03T02:40:31.433Z,4.35
2023-03-03T02:42:58.369Z,4.38
2023-03-03T02:45:24.987Z,4.35
2023-03-03T02:47:52.120Z,4.45
2023-03-03T02:50:18.886Z,3.88
2023-03-03T02:52:45.471Z,4.55
2023-03-03T02:55:11.993Z,4.55
2023-03-03T02:57:38.509Z,4.65
2023-03-03T03:00:05.681Z,3.80
2023-03-03T03:02:32.335Z,4.75
2023-03-03T03:04:58.886Z,4.68
2023-03-03T03:07:25.474Z,4.85
2023-03-03T03:09:52.190Z,4.45
2023-03-03T03:12:19.416Z,4.70
2023-03-03T03:14:46.068Z,4.30
2023-03-03T03:17:13.286Z,4.50
2023-03-03T03:19:39.930Z,4.10
2023-03-03T03:22:06.420Z,4.40
2023-03-03T03:24:32.874Z,4.03
2023-03-03T03:26:59.472Z,4.25
2023-03-03T03:29:26.051Z,4.68
2023-03-03T03:31:52.627Z,4.65
2023-03-03T03:34:19.133Z,4.70
2023-03-03T03:36:46.993Z,5.05
2023-03-03T03:39:13.532Z,3.92
2023-03-03T03:41:41.232Z,3.58
2023-03-03T03:44:07.783Z,4.55
2023-03-03T03:46:34.325Z,4.95
2023-03-03T03:49:00.875Z,4.10
2023-03-03T03:51:27.430Z,4.38
2023-03-03T03:53:53.875Z,4.22
2023-03-03T03:56:20.474Z,4.60
2023-03-03T03:58:47.038Z,4.30
2023-03-03T04:01:13.570Z,4.30
2023-03-03T04:03:40.221Z,4.50
2023-03-03T04:06:06.717Z,4.30
2023-03-03T04:08:33.222Z,4.30
2023-03-03T04:10:59.831Z,3.75
2023-03-03T04:13:29.005Z,4.60
2023-03-03T04:15:55.667Z,4.28
2023-03-03T04:18:22.322Z,4.80
2023-03-03T04:20:49.821Z,4.68
2023-03-03T04:23:16.292Z,4.80
2023-03-03T04:25:42.764Z,4.20
2023-03-03T04:28:10.779Z,4.38
2023-03-03T04:30:37.236Z,4.50
2023-03-03T04:33:03.812Z,4.40
2023-03-03T04:35:30.451Z,4.20
2023-03-03T04:37:57.017Z,4.18
2023-03-03T04:40:23.685Z,4.57
2023-03-03T04:42:50.329Z,4.22
2023-03-03T04:45:16.865Z,4.60
2023-03-03T04:47:43.602Z,4.82
2023-03-03T04:50:10.844Z,4.50
2023-03-03T04:52:37.593Z,4.50
2023-03-03T04:55:04.552Z,4.45
2023-03-03T04:57:32.047Z,5.05
2023-03-03T04:59:58.615Z,3.40
2023-03-03T05:02:25.418Z,4.75
2023-03-03T05:04:52.063Z,4.53
2023-03-03T05:07:20.137Z,4.82
2023-03-03T05:09:46.720Z,4.13
2023-03-03T05:12:13.343Z,4.43
2023-03-03T05:14:39.997Z,4.07
2023-03-03T05:17:06.736Z,5.15
2023-03-03T05:19:34.989Z,4.38
2023-03-03T05:22:02.205Z,4.25
2023-03-03T05:24:28.880Z,4.85
2023-03-03T05:26:55.461Z,5.00
2023-03-03T05:29:22.038Z,4.38
2023-03-03T05:31:48.666Z,4.30
2023-03-03T05:34:15.229Z,4.85
2023-03-03T05:36:41.844Z,4.43
2023-03-03T05:39:08.410Z,4.70
2023-03-03T05:41:36.930Z,4.97
2023-03-03T05:44:04.025Z,4.70
2023-03-03T05:46:30.691Z,4.53
2023-03-03T05:48:57.586Z,4.72
2023-03-03T05:51:24.081Z,4.78
2023-03-03T05:53:50.616Z,4.53
2023-03-03T05:56:17.155Z,4.30
2023-03-03T05:58:43.629Z,4.80
2023-03-03T06:01:10.174Z,4.30
2023-03-03T06:03:36.713Z,4.20
2023-03-03T06:06:03.222Z,4.80
2023-03-03T06:08:30.703Z,4.43
2023-03-03T06:10:57.259Z,4.68
2023-03-03T06:13:23.815Z,4.80
2023-03-03T06:15:50.432Z,4.95
2023-03-03T06:18:17.120Z,5.28
2023-03-03T06:20:43.652Z,5.03
2023-03-03T06:23:10.217Z,4.88
2023-03-03T06:25:37.367Z,5.35
2023-03-03T06:28:04.090Z,5.07
2023-03-03T06:30:30.806Z,4.97
2023-03-03T06:32:57.596Z,5.28
2023-03-03T06:35:24.345Z,5.00
2023-03-03T06:37:51.038Z,5.15
2023-03-03T06:40:17.614Z,4.80
2023-03-03T06:42:44.245Z,5.18
2023-03-03T06:45:10.950Z,5.60
2023-03-03T06:47:37.485Z,4.63
2023-03-03T06:50:04.238Z,5.35
2023-03-03T06:52:30.813Z,5.63
2023-03-03T06:54:58.304Z,5.70
2023-03-03T06:57:31.926Z,5.53
2023-03-03T07:00:02.744Z,3.85
2023-03-03T07:02:29.343Z,5.88
2023-03-03T07:04:56.582Z,6.10
2023-03-03T07:07:24.892Z,5.50
2023-03-03T07:09:52.548Z,6.30
2023-03-03T07:12:23.551Z,5.70
2023-03-03T07:14:57.159Z,5.30
2023-03-03T07:17:25.021Z,6.10
2023-03-03T07:19:51.827Z,5.70
2023-03-03T07:22:19.853Z,6.07
2023-03-03T07:24:47.333Z,6.32
2023-03-03T07:27:19.683Z,5.20
2023-03-03T07:29:49.676Z,5.32
2023-03-03T07:32:26.927Z,5.75
2023-03-03T07:34:54.840Z,5.50
2023-03-03T07:37:50.529Z,5.45
2023-03-03T07:40:37.025Z,7.10
2023-03-03T07:43:36.078Z,5.57
2023-03-03T07:46:13.945Z,6.70
2023-03-03T07:48:43.689Z,6.13
2023-03-03T07:51:19.931Z,5.80
2023-03-03T07:53:47.559Z,6.03
2023-03-03T07:56:25.640Z,5.72
2023-03-03T07:58:52.333Z,6.60
2023-03-03T08:01:27.829Z,6.35
2023-03-03T08:03:54.659Z,6.60
2023-03-03T08:06:40.349Z,6.60
2023-03-03T08:09:09.582Z,6.70
2023-03-03T08:11:37.950Z,6.88
2023-03-03T08:14:11.972Z,6.80
2023-03-03T08:16:38.502Z,6.63
2023-03-03T08:19:06.102Z,7.03
2023-03-03T08:21:34.407Z,6.72
2023-03-03T08:24:00.926Z,6.80
2023-03-03T08:26:27.522Z,7.03
2023-03-03T08:28:54.560Z,6.97
2023-03-03T08:31:38.311Z,6.70
2023-03-03T08:34:07.496Z,7.13
2023-03-03T08:36:34.963Z,7.40
2023-03-03T08:39:01.774Z,7.15
2023-03-03T08:41:28.274Z,6.97
2023-03-03T08:43:54.717Z,6.75
2023-03-03T08:46:21.297Z,7.35
2023-03-03T08:48:47.942Z,6.78
2023-03-03T08:51:14.826Z,6.80
2023-03-03T08:53:42.009Z,7.32
2023-03-03T08:56:08.933Z,7.70
2023-03-03T08:58:36.561Z,7.07
2023-03-03T09:01:03.413Z,6.78
2023-03-03T09:03:30.157Z,7.03
2023-03-03T09:05:56.750Z,5.22
2023-03-03T10:05:33.132Z,9.57
2023-03-03T10:08:02.901Z,10.32
2023-03-03T10:10:29.649Z,9.23
2023-03-03T10:13:14.542Z,9.05
2023-03-03T10:15:50.382Z,8.93
2023-03-03T10:18:17.236Z,9.05
2023-03-03T10:21:04.381Z,9.50
2023-03-03T10:23:46.561Z,8.98
2023-03-03T10:26:44.222Z,9.32
2023-03-03T10:29:22.813Z,8.73
2023-03-03T10:32:02.306Z,8.90
2023-03-03T10:34:47.581Z,8.85
2023-03-03T10:37:16.864Z,8.63
2023-03-03T10:39:43.361Z,8.10
2023-03-03T10:42:11.361Z,8.15
2023-03-03T10:44:49.450Z,8.13
2023-03-03T10:47:28.213Z,8.82
2023-03-03T10:49:57.955Z,9.65
2023-03-03T10:52:24.511Z,11.57
2023-03-03T10:55:10.240Z,8.43
2023-03-03T10:57:46.074Z,8.20
2023-03-03T11:00:24.901Z,7.55
2023-03-03T11:02:53.890Z,7.90
2023-03-03T11:05:36.830Z,8.45
2023-03-03T11:08:12.817Z,8.02
2023-03-03T11:10:45.309Z,7.55
2023-03-03T11:13:15.429Z,7.80
2023-03-03T11:16:02.764Z,7.88
2023-03-03T11:18:41.813Z,8.10
2023-03-03T11:21:24.291Z,7.38
2023-03-03T11:24:14.996Z,7.65
2023-03-03T11:26:50.605Z,7.65
2023-03-03T11:29:37.800Z,6.90
2023-03-03T11:32:23.294Z,6.30
2023-03-03T11:34:58.628Z,6.93
2023-03-03T11:37:42.238Z,7.90
2023-03-03T11:40:20.177Z,7.50
2023-03-03T11:42:58.843Z,7.95
2023-03-03T11:45:30.042Z,7.10
2023-03-03T11:47:56.898Z,7.35
2023-03-03T11:50:24.197Z,7.35
2023-03-03T11:53:01.202Z,7.13
2023-03-03T11:55:30.879Z,6.68
2023-03-03T11:58:09.646Z,7.63
2023-03-03T12:00:41.895Z,6.88
2023-03-03T12:03:16.740Z,7.05
2023-03-03T12:06:07.363Z,6.70
2023-03-03T12:08:58.489Z,6.78
2023-03-03T12:11:32.534Z,7.22
2023-03-03T12:14:34.635Z,7.70
2023-03-03T12:17:03.286Z,7.05
2023-03-03T12:19:34.780Z,6.90
2023-03-03T12:22:20.231Z,6.97
2023-03-03T12:25:01.466Z,7.32
2023-03-03T12:27:39.924Z,7.00
2023-03-03T12:30:13.474Z,6.63
2023-03-03T12:33:00.371Z,7.00
2023-03-03T12:35:29.779Z,6.38
2023-03-03T12:38:02.279Z,6.78
2023-03-03T12:40:36.395Z,6.45
2023-03-03T12:43:21.551Z,6.78
2023-03-03T12:45:55.014Z,6.72
2023-03-03T12:48:36.336Z,7.20
2023-03-03T12:51:08.862Z,6.30
2023-03-03T12:53:49.250Z,6.80
2023-03-03T12:56:25.895Z,6.38
2023-03-03T12:59:17.150Z,6.57
2023-03-03T13:02:10.921Z,6.20
2023-03-03T13:04:40.217Z,5.90
2023-03-03T13:07:25.953Z,6.20
2023-03-03T13:10:01.624Z,6.75
2023-03-03T13:12:37.495Z,5.85
2023-03-03T13:15:10.042Z,7.40
2023-03-03T13:17:36.493Z,6.10
2023-03-03T13:20:05.302Z,5.80
2023-03-03T13:22:34.952Z,6.38
2023-03-03T13:25:16.684Z,6.25
2023-03-03T13:27:44.958Z,5.70
2023-03-03T13:30:22.503Z,5.70
2023-03-03T13:32:59.583Z,6.40
2023-03-03T13:35:37.993Z,6.07
2023-03-03T13:38:05.871Z,6.03
2023-03-03T13:40:50.272Z,6.78
2023-03-03T13:43:25.711Z,7.43
2023-03-03T13:46:08.407Z,9.60
2023-03-03T13:48:58.221Z,8.57
2023-03-03T13:51:24.773Z,8.18
2023-03-03T13:54:15.892Z,8.60
2023-03-03T13:56:55.948Z,7.18
2023-03-03T13:59:37.453Z,8.40
2023-03-03T14:02:16.017Z,7.72
2023-03-03T14:04:58.573Z,6.95
2023-03-03T14:07:28.803Z,7.40
2023-03-03T14:10:07.262Z,7.85
2023-03-03T14:12:36.699Z,7.22
2023-03-03T14:15:09.801Z,8.15
2023-03-03T14:17:55.041Z,5.95
2023-03-03T14:20:27.363Z,7.78
2023-03-03T14:22:59.653Z,7.90
2023-03-03T14:25:26.223Z,7.28
2023-03-03T14:28:01.221Z,7.47
2023-03-03T14:30:29.797Z,7.53
2023-03-03T14:33:00.861Z,8.20
2023-03-03T14:35:30.291Z,7.35
2023-03-03T14:38:01.432Z,7.47
2023-03-03T14:40:32.616Z,6.70
2023-03-03T14:43:00.542Z,7.22
2023-03-03T14:45:36.276Z,7.45
2023-03-03T14:48:23.076Z,7.07
2023-03-03T14:50:51.522Z,6.28
2023-03-03T14:53:18.012Z,6.47
2023-03-03T14:55:45.884Z,6.57
2023-03-03T14:58:26.123Z,6.38
2023-03-03T15:01:07.085Z,6.80
2023-03-03T15:03:38.156Z,6.13
2023-03-03T15:06:12.996Z,6.32
2023-03-03T15:08:40.805Z,6.07
2023-03-03T15:11:14.106Z,5.72
2023-03-03T15:13:40.837Z,6.53
2023-03-03T15:16:12.080Z,6.30
2023-03-03T15:18:55.739Z,6.38
2023-03-03T15:21:26.676Z,6.22
2023-03-03T15:23:58.679Z,6.38
2023-03-03T15:26:28.481Z,6.43
2023-03-03T15:28:55.065Z,5.65
2023-03-03T15:31:31.115Z,6.35
2023-03-03T15:34:16.388Z,6.25
2023-03-03T15:36:54.896Z,6.15
2023-03-03T15:39:40.128Z,5.95
2023-03-03T15:42:22.699Z,6.00
2023-03-03T15:44:49.272Z,5.40
2023-03-03T15:47:15.853Z,5.45
2023-03-03T15:50:20.725Z,5.63
2023-03-03T15:52:53.598Z,5.55
2023-03-03T15:55:28.478Z,5.78
2023-03-03T15:58:01.656Z,5.63
2023-03-03T16:00:34.928Z,5.10
2023-03-03T16:03:19.536Z,5.32
2023-03-03T16:06:04.068Z,5.05
2023-03-03T16:08:43.560Z,5.72
2023-03-03T16:11:18.067Z,6.05
2023-03-03T16:13:51.097Z,5.88
2023-03-03T16:16:20.464Z,4.28
2023-03-03T16:19:00.704Z,5.22
2023-03-03T16:21:45.627Z,5.93
2023-03-03T16:24:23.035Z,5.30
2023-03-03T16:27:15.954Z,5.32
2023-03-03T16:30:14.980Z,5.70
2023-03-03T16:32:46.545Z,5.35
2023-03-03T16:35:19.215Z,4.28
2023-03-03T16:37:59.835Z,5.47
2023-03-03T16:40:31.958Z,5.03
2023-03-03T16:43:21.793Z,5.15
2023-03-03T16:45:48.554Z,5.32
2023-03-03T16:48:47.000Z,4.68
2023-03-03T16:51:18.561Z,4.75
2023-03-03T16:53:48.382Z,5.18
2023-03-03T16:56:14.878Z,5.05
2023-03-03T16:59:04.929Z,4.78
2023-03-03T17:01:37.316Z,5.30
2023-03-03T17:04:09.687Z,4.65
2023-03-03T17:06:41.330Z,5.68
2023-03-03T17:09:33.094Z,5.18
2023-03-03T17:12:08.904Z,5.03
2023-03-03T17:14:35.514Z,5.55
2023-03-03T17:17:08.292Z,5.30
2023-03-03T17:19:35.442Z,5.03
2023-03-03T17:22:21.032Z,5.38
2023-03-03T17:25:05.144Z,5.07
2023-03-03T17:27:47.042Z,4.93
2023-03-03T17:30:25.811Z,4.82
2023-03-03T17:33:12.594Z,5.28
2023-03-03T17:35:50.695Z,4.88
2023-03-03T17:38:29.200Z,5.03
2023-03-03T17:41:02.219Z,4.53
2023-03-03T17:43:28.812Z,4.47
2023-03-03T17:45:56.241Z,4.95
2023-03-03T17:48:41.604Z,5.35
2023-03-03T17:51:16.714Z,4.63
2023-03-03T17:54:03.568Z,4.35
2023-03-03T17:56:39.156Z,5.40
2023-03-03T17:59:24.269Z,5.32
2023-03-03T18:02:05.907Z,4.80
2023-03-03T18:04:32.429Z,5.20
2023-03-03T18:07:14.463Z,5.30
2023-03-03T18:09:59.855Z,4.85
2023-03-03T18:12:29.080Z,4.97
2023-03-03T18:15:25.317Z,5.47
2023-03-03T18:18:02.002Z,4.82
2023-03-03T18:20:32.852Z,4.90
2023-03-03T18:23:19.023Z,5.43
2023-03-03T18:25:55.340Z,5.15
2023-03-03T18:28:23.750Z,5.60
2023-03-03T18:30:50.262Z,5.28
2023-03-03T18:33:16.974Z,4.50
2023-03-03T18:35:44.640Z,5.55
2023-03-03T18:38:17.096Z,17.95
2023-03-03T18:40:56.697Z,6.65
2023-03-03T18:43:41.929Z,5.93
2023-03-03T18:46:31.842Z,5.32
2023-03-03T18:48:58.459Z,4.88
2023-03-03T18:51:34.021Z,5.10
2023-03-03T18:54:00.650Z,5.22
2023-03-03T18:56:46.031Z,5.10
2023-03-03T18:59:30.750Z,5.50
2023-03-03T19:02:09.260Z,5.00
2023-03-03T19:04:36.836Z,5.13
2023-03-03T19:07:24.750Z,4.38
2023-03-03T19:09:57.352Z,4.97
2023-03-03T19:12:59.251Z,4.57
2023-03-03T19:15:31.701Z,5.00
2023-03-03T19:18:02.422Z,4.97
2023-03-03T19:20:42.254Z,4.45
2023-03-03T19:23:16.243Z,4.68
2023-03-03T19:25:42.765Z,4.60
2023-03-03T19:28:15.126Z,5.20
2023-03-03T19:30:42.181Z,4.68
2023-03-03T19:33:17.033Z,4.72
2023-03-03T19:35:49.606Z,4.90
2023-03-03T19:38:34.151Z,4.90
2023-03-03T19:41:18.831Z,5.53
2023-03-03T19:44:04.123Z,4.95
2023-03-03T19:46:33.233Z,4.32
2023-03-03T19:49:05.874Z,4.82
2023-03-03T19:51:41.996Z,4.60
2023-03-03T19:54:23.471Z,4.88
2023-03-03T19:56:54.668Z,4.97
2023-03-03T19:59:33.778Z,4.95
2023-03-03T20:02:00.384Z,4.80
2023-03-03T20:04:32.724Z,5.15
2023-03-03T20:07:08.794Z,4.82
2023-03-03T20:09:42.545Z,4.43
2023-03-03T20:12:09.633Z,4.88
2023-03-03T20:14:36.088Z,4.65
2023-03-03T20:17:21.032Z,4.53
2023-03-03T20:19:50.244Z,4.63
2023-03-03T20:22:28.130Z,4.90
2023-03-03T20:24:54.616Z,4.53
2023-03-03T20:27:30.176Z,5.07
2023-03-03T20:29:59.564Z,4.80
2023-03-03T20:32:42.494Z,4.85
2023-03-03T20:35:14.695Z,5.25
2023-03-03T20:37:50.353Z,5.15
2023-03-03T20:40:16.724Z,5.50
2023-03-03T20:42:51.158Z,5.60
2023-03-03T20:45:26.290Z,4.82
2023-03-03T20:47:52.711Z,5.00
2023-03-03T20:50:19.127Z,5.05
2023-03-03T20:53:05.473Z,4.90
2023-03-03T20:55:31.906Z,5.57
2023-03-03T20:58:24.668Z,4.78
2023-03-03T21:00:51.208Z,5.25
2023-03-03T21:03:23.011Z,5.07
2023-03-03T21:06:00.812Z,4.53
2023-03-03T21:08:48.561Z,4.65
2023-03-03T21:11:16.504Z,4.88
2023-03-03T21:13:44.315Z,5.25
2023-03-03T21:16:10.827Z,5.05
2023-03-03T21:18:37.630Z,5.15
2023-03-03T21:21:04.692Z,4.40
2023-03-03T21:23:31.217Z,3.85
2023-03-03T21:25:58.273Z,4.88
2023-03-03T21:28:26.313Z,4.60
2023-03-03T21:31:11.012Z,5.00
2023-03-03T21:33:45.514Z,5.38
2023-03-03T21:36:13.119Z,4.78
2023-03-03T21:38:40.186Z,4.72
2023-03-03T21:41:07.541Z,5.45
2023-03-03T21:43:34.223Z,5.03
2023-03-03T21:46:00.768Z,5.28
2023-03-03T21:48:27.390Z,5.43
2023-03-03T21:50:53.930Z,5.20
2023-03-03T21:53:20.977Z,5.20
2023-03-03T21:55:50.240Z,5.03
2023-03-03T21:58:17.106Z,5.88
2023-03-03T22:00:46.659Z,5.35
2023-03-03T22:03:13.851Z,5.10
2023-03-03T22:05:40.850Z,4.88
2023-03-03T22:08:07.416Z,4.82
2023-03-03T22:10:33.999Z,5.60
2023-03-03T22:13:00.523Z,5.03
2023-03-03T22:15:27.832Z,5.50
2023-03-03T22:17:54.386Z,4.95
2023-03-03T22:20:21.571Z,5.18
2023-03-03T22:22:48.073Z,5.47
2023-03-03T22:25:14.572Z,4.75
2023-03-03T22:27:41.133Z,5.20
2023-03-03T22:30:08.196Z,5.00
2023-03-03T22:32:34.670Z,5.22
2023-03-03T22:35:01.284Z,5.28
2023-03-03T22:37:27.830Z,5.18
2023-03-03T22:39:54.297Z,5.40
2023-03-03T22:42:20.897Z,5.15
2023-03-03T22:44:47.442Z,5.65
2023-03-03T22:47:13.905Z,5.00
2023-03-03T22:49:40.328Z,5.72
2023-03-03T22:52:06.802Z,5.10
2023-03-03T22:54:33.231Z,5.25
2023-03-03T22:56:59.717Z,5.43
2023-03-03T22:59:26.195Z,5.43
2023-03-03T23:01:52.666Z,6.20
2023-03-03T23:04:19.569Z,6.30
2023-03-03T23:06:46.047Z,6.15
2023-03-03T23:09:12.505Z,6.60
2023-03-03T23:11:39.861Z,6.07
2023-03-03T23:14:06.418Z,6.90
2023-03-03T23:16:32.899Z,6.47
2023-03-03T23:18:59.337Z,6.35
2023-03-03T23:21:25.741Z,6.22
2023-03-03T23:23:52.246Z,6.50
2023-03-03T23:26:18.698Z,5.65
2023-03-03T23:28:45.109Z,6.40
2023-03-03T23:31:11.590Z,6.07
2023-03-03T23:33:38.136Z,6.28
2023-03-03T23:36:04.685Z,6.22
2023-03-03T23:38:31.142Z,6.50
2023-03-03T23:40:57.628Z,6.75
2023-03-03T23:43:24.271Z,4.93
2023-03-03T23:45:50.686Z,6.50
2023-03-03T23:48:17.151Z,6.35
2023-03-03T23:50:43.599Z,6.90
2023-03-03T23:53:10.002Z,6.45
2023-03-03T23:55:37.683Z,6.80
2023-03-03T23:58:04.528Z,6.10
